Current Conditions
Light Rain
Showers



Pressure
1025.72 (hPa) - 30.29 (inHG)
Visibility

2.0 (km) - 1.2 (miles)
   Temperature
4  °C
39°F
3  °C
Dewpoint
93  %
 Humidity
   Wind Speed
3  km/h
2  kts
2  mph
0.9  m/s
   Wind Direction
 220°
South West
   Airport Data
CYQQ
Location Comox Airport 49 km (30.45 mi)
Metar :CYQQ 031804Z 22002KT 1 1/2SM -RA BR OVC004 04/03 A3029 RMK ST8 VIS VRB 1-2 VIS LWR NE QUAD CIG VRB 3-5 SLP257
Thu 3rd December 10:04 am
   Raw Metar Info
Raw METAR is the most common format in the world for the transmission of observational weather data. It is highly standardized through the International Civil Aviation Organization (ICAO), which allows it to be understood throughout most of the world.
   API Info
Data Provided by
https://www.checkwx.com/weather/CYQQ
   © Info
CSS/SVG/PHP scripts were developed by weather34.com for use in the weather34 template © 2015-2020

Guide Info provided by Metar-Wikipedia